createdAt,value
2024-05-09T00:00:39.714Z,80.97
2024-05-09T00:01:36.578Z,80.97
2024-05-09T00:02:36.623Z,80.91
2024-05-09T00:03:36.712Z,80.88
2024-05-09T00:04:36.846Z,80.92
2024-05-09T00:05:37.246Z,80.97
2024-05-09T00:06:36.925Z,81.03
2024-05-09T00:07:37.014Z,81.08
2024-05-09T00:08:37.215Z,81.18
2024-05-09T00:09:37.207Z,81.30
2024-05-09T00:10:39.094Z,81.40
2024-05-09T00:11:37.427Z,81.52
2024-05-09T00:12:37.414Z,81.58
2024-05-09T00:13:37.507Z,81.65
2024-05-09T00:14:37.673Z,81.72
2024-05-09T00:15:37.729Z,81.78
2024-05-09T00:16:37.787Z,81.86
2024-05-09T00:17:38.053Z,81.87
2024-05-09T00:18:38.002Z,81.87
2024-05-09T00:19:38.079Z,81.91
2024-05-09T00:20:40.757Z,81.98
2024-05-09T00:21:38.223Z,82.08
2024-05-09T00:22:38.284Z,82.11
2024-05-09T00:23:38.487Z,82.17
2024-05-09T00:24:38.456Z,82.23
2024-05-09T00:25:38.565Z,82.32
2024-05-09T00:26:38.716Z,82.34
2024-05-09T00:27:38.708Z,82.33
2024-05-09T00:28:38.793Z,82.35
2024-05-09T00:29:38.922Z,82.37
2024-05-09T00:30:38.982Z,82.34
2024-05-09T00:31:39.031Z,82.30
2024-05-09T00:32:39.268Z,82.31
2024-05-09T00:33:39.339Z,82.38
2024-05-09T00:34:39.271Z,82.42
2024-05-09T00:35:39.622Z,82.44
2024-05-09T00:36:39.402Z,82.54
2024-05-09T00:37:39.487Z,82.59
2024-05-09T00:38:39.608Z,82.55
2024-05-09T00:39:39.683Z,82.54
2024-05-09T00:40:42.256Z,82.63
2024-05-09T00:41:39.890Z,82.76
2024-05-09T00:42:39.910Z,82.78
2024-05-09T00:43:39.986Z,82.78
2024-05-09T00:44:40.069Z,82.78
2024-05-09T00:45:40.183Z,82.78
2024-05-09T00:46:40.210Z,82.82
2024-05-09T00:47:40.534Z,82.83
2024-05-09T00:48:40.545Z,82.87
2024-05-09T00:49:40.542Z,82.89
2024-05-09T00:50:41.426Z,82.91
2024-05-09T00:51:40.574Z,82.93
2024-05-09T00:52:40.660Z,82.95
2024-05-09T00:53:40.803Z,82.98
2024-05-09T00:54:40.806Z,82.98
2024-05-09T00:55:40.940Z,82.98
2024-05-09T00:56:41.004Z,83.01
2024-05-09T00:57:41.029Z,83.09
2024-05-09T00:58:41.118Z,83.21
2024-05-09T00:59:41.248Z,83.25
2024-05-09T01:00:41.884Z,83.27
2024-05-09T01:01:41.535Z,83.31
2024-05-09T01:02:41.585Z,83.34
2024-05-09T01:03:41.714Z,83.38
2024-05-09T01:04:41.746Z,83.44
2024-05-09T01:05:42.167Z,83.39
2024-05-09T01:06:41.819Z,83.41
2024-05-09T01:07:41.932Z,83.44
2024-05-09T01:08:42.010Z,83.47
2024-05-09T01:09:42.065Z,83.48
2024-05-09T01:10:44.878Z,83.52
2024-05-09T01:11:42.344Z,83.60
2024-05-09T01:12:42.295Z,83.67
2024-05-09T01:13:42.436Z,83.72
2024-05-09T01:14:42.465Z,83.75
2024-05-09T01:15:42.527Z,83.72
2024-05-09T01:16:42.654Z,83.73
2024-05-09T01:17:42.819Z,83.73
2024-05-09T01:18:42.886Z,83.68
2024-05-09T01:19:42.958Z,83.68
2024-05-09T01:20:44.879Z,83.68
2024-05-09T01:21:42.936Z,83.70
2024-05-09T01:22:43.128Z,83.72
2024-05-09T01:23:43.130Z,83.75
2024-05-09T01:24:43.212Z,83.75
2024-05-09T01:25:43.492Z,83.77
2024-05-09T01:26:43.347Z,83.79
2024-05-09T01:27:43.432Z,83.83
2024-05-09T01:28:43.531Z,83.88
2024-05-09T01:29:43.576Z,83.92
2024-05-09T01:30:43.667Z,83.92
2024-05-09T01:31:43.857Z,83.97
2024-05-09T01:32:43.928Z,84.07
2024-05-09T01:33:44.185Z,84.14
2024-05-09T01:34:44.045Z,84.18
2024-05-09T01:35:44.097Z,84.25
2024-05-09T01:36:44.176Z,84.24
2024-05-09T01:37:44.275Z,84.26
2024-05-09T01:38:44.397Z,84.23
2024-05-09T01:39:44.387Z,84.28
2024-05-09T01:40:44.482Z,84.38
2024-05-09T01:41:44.529Z,84.44
2024-05-09T01:42:44.604Z,84.45
2024-05-09T01:43:44.768Z,84.46
2024-05-09T01:44:44.779Z,84.48
2024-05-09T01:45:44.884Z,84.54
2024-05-09T01:46:45.063Z,84.57
2024-05-09T01:47:45.138Z,84.60
2024-05-09T01:48:45.283Z,84.61
2024-05-09T01:49:45.274Z,84.62
2024-05-09T01:50:45.304Z,84.64
2024-05-09T01:51:45.357Z,84.67
2024-05-09T01:52:45.474Z,84.72
2024-05-09T01:53:45.536Z,84.78
2024-05-09T01:54:45.624Z,84.84
2024-05-09T01:55:45.733Z,84.91
2024-05-09T01:56:45.799Z,84.91
2024-05-09T01:57:45.864Z,84.97
2024-05-09T01:58:45.979Z,85.00
2024-05-09T01:59:46.017Z,85.04
2024-05-09T02:00:46.139Z,85.07
2024-05-09T02:01:56.498Z,85.09
2024-05-09T02:02:46.454Z,85.15
2024-05-09T02:03:46.626Z,85.16
2024-05-09T02:04:46.657Z,85.18
2024-05-09T02:05:47.387Z,85.21
2024-05-09T02:06:46.614Z,85.21
2024-05-09T02:07:46.746Z,85.22
2024-05-09T02:08:46.830Z,85.22
2024-05-09T02:09:46.856Z,85.21
2024-05-09T02:10:47.787Z,85.19
2024-05-09T02:11:47.064Z,85.15
2024-05-09T02:12:47.104Z,85.15
2024-05-09T02:13:47.202Z,85.13
2024-05-09T02:14:47.276Z,85.09
2024-05-09T02:15:47.344Z,85.08
2024-05-09T02:16:47.466Z,85.09
2024-05-09T02:17:47.827Z,85.10
2024-05-09T02:18:47.683Z,85.10
2024-05-09T02:19:47.671Z,85.05
2024-05-09T02:20:47.784Z,84.80
2024-05-09T02:21:47.807Z,84.34
2024-05-09T02:22:47.956Z,83.92
2024-05-09T02:23:47.969Z,83.56
2024-05-09T02:24:48.100Z,83.22
2024-05-09T02:25:48.221Z,83.05
2024-05-09T02:26:48.220Z,82.97
2024-05-09T02:27:48.305Z,82.82
2024-05-09T02:28:48.446Z,82.67
2024-05-09T02:29:48.439Z,82.56
2024-05-09T02:30:48.563Z,82.61
2024-05-09T02:31:48.689Z,82.78
2024-05-09T02:32:48.927Z,82.77
2024-05-09T02:33:49.287Z,82.81
2024-05-09T02:34:48.927Z,82.77
2024-05-09T02:35:48.909Z,82.69
2024-05-09T02:36:49.007Z,82.57
2024-05-09T02:37:49.112Z,82.42
2024-05-09T02:38:49.141Z,82.36
2024-05-09T02:39:49.223Z,82.31
2024-05-09T02:40:49.365Z,82.24
2024-05-09T02:41:49.371Z,82.18
2024-05-09T02:42:49.443Z,82.23
2024-05-09T02:43:49.539Z,82.50
2024-05-09T02:44:49.608Z,82.74
2024-05-09T02:45:49.716Z,82.83
2024-05-09T02:46:49.806Z,82.95
2024-05-09T02:47:50.019Z,82.95
2024-05-09T02:48:50.029Z,82.87
2024-05-09T02:49:50.064Z,82.78
2024-05-09T02:50:50.186Z,82.72
2024-05-09T02:51:50.150Z,82.68
2024-05-09T02:52:50.323Z,82.61
2024-05-09T02:53:50.366Z,82.51
2024-05-09T02:54:50.408Z,82.36
2024-05-09T02:55:50.547Z,82.25
2024-05-09T02:56:50.543Z,82.21
2024-05-09T02:57:50.644Z,82.20
2024-05-09T02:58:50.729Z,82.21
2024-05-09T02:59:50.822Z,82.30
2024-05-09T03:00:50.948Z,82.44
2024-05-09T03:01:51.010Z,82.50
2024-05-09T03:02:51.169Z,82.52
2024-05-09T03:03:51.655Z,82.51
2024-05-09T03:04:51.358Z,82.50
2024-05-09T03:05:51.302Z,82.51
2024-05-09T03:06:51.341Z,82.49
2024-05-09T03:07:51.439Z,82.50
2024-05-09T03:08:51.487Z,82.51
2024-05-09T03:09:51.590Z,82.53
2024-05-09T03:10:51.687Z,82.62
2024-05-09T03:11:51.855Z,82.74
2024-05-09T03:12:51.825Z,82.82
2024-05-09T03:13:51.936Z,82.87
2024-05-09T03:14:51.970Z,82.91
2024-05-09T03:15:52.055Z,82.93
2024-05-09T03:16:52.145Z,83.08
2024-05-09T03:17:52.451Z,83.33
2024-05-09T03:18:52.427Z,83.45
2024-05-09T03:19:52.421Z,83.52
2024-05-09T03:20:52.587Z,83.54
2024-05-09T03:21:52.540Z,83.56
2024-05-09T03:22:56.317Z,83.57
2024-05-09T03:23:52.731Z,83.55
2024-05-09T03:24:52.782Z,83.57
2024-05-09T03:25:52.866Z,83.68
2024-05-09T03:26:52.919Z,83.77
2024-05-09T03:27:53.019Z,83.82
2024-05-09T03:28:53.165Z,83.86
2024-05-09T03:29:53.190Z,83.96
2024-05-09T03:30:53.257Z,84.02
2024-05-09T03:31:53.409Z,83.99
2024-05-09T03:32:53.574Z,83.95
2024-05-09T03:33:53.652Z,83.85
2024-05-09T03:34:53.610Z,83.75
2024-05-09T03:35:53.676Z,83.57
2024-05-09T03:36:53.744Z,83.56
2024-05-09T03:37:53.893Z,83.53
2024-05-09T03:38:53.898Z,83.51
2024-05-09T03:39:53.983Z,83.50
2024-05-09T03:40:54.077Z,83.48
2024-05-09T03:41:54.186Z,83.49
2024-05-09T03:42:54.242Z,83.61
2024-05-09T03:43:54.355Z,83.83
2024-05-09T03:44:54.383Z,83.89
2024-05-09T03:45:54.464Z,83.84
2024-05-09T03:46:54.645Z,83.83
2024-05-09T03:47:54.966Z,84.08
2024-05-09T03:48:54.756Z,84.42
2024-05-09T03:49:54.812Z,84.69
2024-05-09T03:50:54.941Z,85.01
2024-05-09T03:51:54.958Z,85.21
2024-05-09T03:52:55.047Z,85.42
2024-05-09T03:53:55.128Z,85.55
2024-05-09T03:54:55.184Z,85.70
2024-05-09T03:55:55.273Z,85.76
2024-05-09T03:56:55.347Z,85.75
2024-05-09T03:57:55.426Z,85.68
2024-05-09T03:58:55.499Z,85.58
2024-05-09T03:59:55.570Z,85.49
2024-05-09T04:00:55.714Z,85.39
2024-05-09T04:01:55.807Z,85.32
2024-05-09T04:02:55.991Z,85.47
2024-05-09T04:03:56.049Z,85.68
2024-05-09T04:04:56.070Z,85.88
2024-05-09T04:05:56.077Z,86.02
2024-05-09T04:06:56.191Z,86.17
2024-05-09T04:07:56.350Z,86.23
2024-05-09T04:08:56.362Z,86.28
2024-05-09T04:09:56.428Z,86.31
2024-05-09T04:10:56.528Z,86.32
2024-05-09T04:11:56.732Z,86.30
2024-05-09T04:12:56.661Z,86.28
2024-05-09T04:13:56.796Z,86.25
2024-05-09T04:14:56.827Z,86.19
2024-05-09T04:15:56.896Z,86.14
2024-05-09T04:16:57.050Z,86.08
2024-05-09T04:17:57.328Z,86.01
2024-05-09T04:18:57.226Z,85.98
2024-05-09T04:19:57.259Z,85.90
2024-05-09T04:20:57.324Z,85.78
2024-05-09T04:21:57.392Z,85.66
2024-05-09T04:22:57.489Z,85.57
2024-05-09T04:23:57.588Z,85.53
2024-05-09T04:24:57.639Z,85.53
2024-05-09T04:25:57.755Z,85.49
2024-05-09T04:26:57.801Z,85.43
2024-05-09T04:27:58.009Z,85.40
2024-05-09T04:28:58.018Z,85.38
2024-05-09T04:29:58.110Z,85.37
2024-05-09T04:30:58.162Z,85.35
2024-05-09T04:31:58.385Z,85.30
2024-05-09T04:32:58.433Z,85.27
2024-05-09T04:33:58.645Z,85.26
2024-05-09T04:34:58.531Z,85.24
2024-05-09T04:35:58.556Z,85.24
2024-05-09T04:36:58.632Z,85.22
2024-05-09T04:37:58.713Z,85.22
2024-05-09T04:38:58.805Z,85.20
2024-05-09T04:39:58.876Z,85.23
2024-05-09T04:40:59.038Z,85.24
2024-05-09T04:41:59.081Z,85.25
2024-05-09T04:42:59.118Z,85.19
2024-05-09T04:43:59.246Z,85.14
2024-05-09T04:44:59.252Z,85.08
2024-05-09T04:45:59.352Z,85.00
2024-05-09T04:46:59.435Z,84.95
2024-05-09T04:47:59.908Z,84.90
2024-05-09T04:48:59.625Z,84.87
2024-05-09T04:49:59.670Z,84.78
2024-05-09T04:50:59.764Z,84.71
2024-05-09T04:51:59.824Z,84.66
2024-05-09T04:52:59.910Z,84.64
2024-05-09T04:53:59.988Z,84.64
2024-05-09T04:55:00.079Z,84.58
2024-05-09T04:56:00.179Z,84.51
2024-05-09T04:57:00.271Z,84.38
2024-05-09T04:58:00.393Z,84.25
2024-05-09T04:59:00.412Z,84.16
2024-05-09T05:00:00.491Z,84.10
2024-05-09T05:01:00.653Z,83.99
2024-05-09T05:02:00.791Z,83.83
2024-05-09T05:03:00.858Z,83.74
2024-05-09T05:04:00.990Z,83.72
2024-05-09T05:05:01.006Z,83.69
2024-05-09T05:06:01.094Z,83.64
2024-05-09T05:07:02.889Z,83.60
2024-05-09T05:08:01.258Z,83.57
2024-05-09T05:09:01.212Z,83.53
2024-05-09T05:10:01.281Z,83.48
2024-05-09T05:11:01.441Z,83.42
2024-05-09T05:12:01.557Z,83.37
2024-05-09T05:13:01.568Z,83.28
2024-05-09T05:14:01.639Z,83.16
2024-05-09T05:15:01.683Z,83.03
2024-05-09T05:16:01.763Z,82.91
2024-05-09T05:17:01.892Z,82.84
2024-05-09T05:18:02.177Z,82.81
2024-05-09T05:19:02.097Z,82.75
2024-05-09T05:20:02.415Z,82.66
2024-05-09T05:21:02.222Z,82.56
2024-05-09T05:22:02.293Z,82.47
2024-05-09T05:23:02.442Z,82.34
2024-05-09T05:24:02.471Z,82.22
2024-05-09T05:25:02.544Z,82.07
2024-05-09T05:26:02.736Z,81.91
2024-05-09T05:27:02.705Z,81.73
2024-05-09T05:28:02.797Z,81.44
2024-05-09T05:29:02.988Z,81.12
2024-05-09T05:30:03.547Z,80.89
2024-05-09T05:31:03.017Z,80.76
2024-05-09T05:32:03.228Z,80.52
2024-05-09T05:33:03.257Z,80.43
2024-05-09T05:34:03.348Z,80.38
2024-05-09T05:35:03.393Z,80.13
2024-05-09T05:36:03.397Z,79.83
2024-05-09T05:37:03.485Z,79.46
2024-05-09T05:38:03.581Z,79.26
2024-05-09T05:39:03.639Z,79.12
2024-05-09T05:40:04.375Z,79.08
2024-05-09T05:41:03.848Z,78.94
2024-05-09T05:42:03.916Z,78.66
2024-05-09T05:43:04.003Z,78.51
2024-05-09T05:44:04.119Z,78.28
2024-05-09T05:45:06.680Z,78.21
2024-05-09T05:46:04.210Z,78.17
2024-05-09T05:47:04.421Z,78.15
2024-05-09T05:48:04.792Z,77.90
2024-05-09T05:49:04.558Z,77.63
2024-05-09T05:50:09.266Z,77.42
2024-05-09T05:51:04.860Z,77.16
2024-05-09T05:52:04.725Z,76.75
2024-05-09T05:53:04.861Z,76.29
2024-05-09T05:54:04.870Z,75.89
2024-05-09T05:55:04.968Z,75.86
2024-05-09T05:56:05.141Z,75.77
2024-05-09T05:57:05.102Z,75.64
2024-05-09T05:58:05.194Z,75.50
2024-05-09T05:59:05.309Z,75.26
2024-05-09T06:00:09.442Z,75.01
2024-05-09T06:01:05.496Z,74.75
2024-05-09T06:02:05.633Z,74.48
2024-05-09T06:03:05.926Z,74.09
2024-05-09T06:04:05.760Z,73.59
2024-05-09T06:05:05.923Z,73.09
2024-05-09T06:06:06.015Z,72.60
2024-05-09T06:07:05.963Z,72.05
2024-05-09T06:08:06.030Z,71.57
2024-05-09T06:09:06.069Z,71.16
2024-05-09T06:10:09.229Z,70.62
2024-05-09T06:11:06.331Z,70.15
2024-05-09T06:12:06.377Z,69.80
2024-05-09T06:13:06.387Z,69.22
2024-05-09T06:14:06.631Z,68.68
2024-05-09T06:15:06.522Z,68.34
2024-05-09T06:16:06.602Z,67.76
2024-05-09T06:17:06.755Z,67.19
2024-05-09T06:18:06.959Z,66.78
2024-05-09T06:19:06.933Z,66.82
2024-05-09T06:20:13.443Z,66.66
2024-05-09T06:21:07.021Z,66.63
2024-05-09T06:22:07.082Z,66.07
2024-05-09T06:23:07.315Z,65.23
2024-05-09T06:24:07.228Z,64.45
2024-05-09T06:25:07.380Z,63.64
2024-05-09T06:26:07.486Z,63.21
2024-05-09T06:27:07.436Z,63.00
2024-05-09T06:28:07.547Z,62.61
2024-05-09T06:29:07.655Z,62.20
2024-05-09T06:30:09.972Z,61.40
2024-05-09T06:31:08.672Z,60.57
2024-05-09T06:32:07.888Z,59.71
2024-05-09T06:33:08.690Z,58.91
2024-05-09T06:34:08.145Z,58.29
2024-05-09T06:35:08.074Z,57.64
2024-05-09T06:36:08.131Z,57.03
2024-05-09T06:37:08.212Z,56.27
2024-05-09T06:38:08.318Z,55.44
2024-05-09T06:39:08.399Z,54.72
2024-05-09T06:40:09.941Z,54.18
2024-05-09T06:41:08.595Z,53.86
2024-05-09T06:42:08.575Z,53.39
2024-05-09T06:43:08.656Z,53.07
2024-05-09T06:44:08.755Z,52.16
2024-05-09T06:45:08.805Z,50.81
2024-05-09T06:46:08.889Z,49.98
2024-05-09T06:47:09.112Z,49.59
2024-05-09T06:48:09.580Z,49.20
2024-05-09T06:49:09.305Z,48.67
2024-05-09T06:50:19.569Z,47.24
2024-05-09T06:51:09.455Z,46.64
2024-05-09T06:52:09.459Z,45.89
2024-05-09T06:53:09.823Z,45.23
2024-05-09T06:54:09.602Z,44.28
2024-05-09T06:55:09.677Z,43.48
2024-05-09T06:56:09.794Z,43.06
2024-05-09T06:57:09.838Z,42.20
2024-05-09T06:58:10.016Z,41.31
2024-05-09T06:59:10.004Z,39.90
2024-05-09T07:00:15.529Z,38.62
2024-05-09T07:01:10.190Z,37.21
2024-05-09T07:02:10.372Z,36.30
2024-05-09T07:03:11.589Z,35.80
2024-05-09T07:04:10.538Z,35.26
2024-05-09T07:05:10.607Z,34.54
2024-05-09T07:06:10.706Z,33.94
2024-05-09T07:07:10.668Z,33.68
2024-05-09T07:08:10.902Z,33.65
2024-05-09T07:09:10.822Z,33.70
2024-05-09T07:10:17.776Z,33.35
2024-05-09T07:11:11.010Z,33.09
2024-05-09T07:12:11.108Z,32.67
2024-05-09T07:13:11.134Z,31.45
2024-05-09T07:14:11.307Z,30.56
2024-05-09T07:15:11.270Z,29.82
2024-05-09T07:16:11.353Z,29.45
2024-05-09T07:17:11.530Z,29.15
2024-05-09T07:18:11.792Z,28.89
2024-05-09T07:19:12.034Z,28.60
2024-05-09T07:20:19.477Z,27.94
2024-05-09T07:21:11.900Z,27.15
2024-05-09T07:22:11.820Z,26.49
2024-05-09T07:23:12.092Z,26.04
2024-05-09T07:24:12.036Z,25.54
2024-05-09T07:25:12.062Z,24.71
2024-05-09T07:26:12.157Z,24.22
2024-05-09T07:27:12.215Z,23.35
2024-05-09T07:28:12.334Z,23.10
2024-05-09T07:29:12.415Z,22.94
2024-05-09T07:30:16.682Z,22.39
2024-05-09T07:31:12.544Z,21.84
2024-05-09T07:32:12.672Z,21.24
2024-05-09T07:33:12.799Z,20.94
2024-05-09T07:34:12.984Z,20.52
2024-05-09T07:35:12.898Z,19.83
2024-05-09T07:36:12.927Z,19.18
2024-05-09T07:37:12.988Z,18.88
2024-05-09T07:38:13.139Z,18.65
2024-05-09T07:39:13.175Z,18.32
2024-05-09T07:40:21.275Z,17.79
2024-05-09T07:41:13.418Z,17.57
2024-05-09T07:42:13.409Z,17.28
2024-05-09T07:43:13.542Z,16.99
2024-05-09T07:44:13.672Z,16.87
2024-05-09T07:45:29.908Z,16.91
2024-05-09T07:48:28.152Z,16.87
2024-05-09T07:52:22.563Z,16.91
2024-05-09T07:53:42.080Z,16.94
2024-05-09T07:53:53.414Z,15.76
2024-05-09T07:54:45.579Z,15.33
2024-05-09T07:55:45.583Z,14.92
2024-05-09T07:56:45.741Z,14.54
2024-05-09T07:57:45.676Z,14.32
2024-05-09T07:58:45.740Z,14.23
2024-05-09T07:59:45.828Z,14.14
2024-05-09T08:00:46.000Z,14.06
2024-05-09T08:01:46.212Z,13.99
2024-05-09T08:02:46.108Z,13.98
2024-05-09T08:03:46.451Z,14.04
2024-05-09T08:04:46.308Z,13.93
2024-05-09T08:05:46.376Z,13.65
2024-05-09T08:06:46.419Z,13.51
2024-05-09T08:07:46.472Z,13.48
2024-05-09T08:08:46.543Z,13.47
2024-05-09T08:09:46.707Z,13.41
2024-05-09T08:10:46.780Z,13.33
2024-05-09T08:11:46.891Z,13.33
2024-05-09T08:12:47.045Z,13.36
2024-05-09T08:13:47.001Z,13.29
2024-05-09T08:14:47.095Z,13.12
2024-05-09T08:15:47.201Z,12.78
2024-05-09T08:16:47.274Z,12.54
2024-05-09T08:17:47.419Z,12.48
2024-05-09T08:18:47.516Z,12.39
2024-05-09T08:19:47.535Z,12.39
2024-05-09T08:20:47.620Z,12.21
2024-05-09T08:21:47.736Z,12.13
2024-05-09T08:22:47.762Z,12.11
2024-05-09T08:23:47.862Z,12.10
2024-05-09T08:24:47.981Z,12.06
2024-05-09T08:25:48.088Z,11.99
2024-05-09T08:26:48.067Z,12.00
2024-05-09T08:27:48.180Z,12.13
2024-05-09T08:28:48.208Z,12.16
2024-05-09T08:29:48.311Z,12.13
2024-05-09T08:30:48.735Z,11.99
2024-05-09T08:31:48.585Z,12.02
2024-05-09T08:32:48.633Z,12.06
2024-05-09T08:33:48.942Z,12.08
2024-05-09T08:34:48.774Z,11.97
2024-05-09T08:35:48.812Z,11.74
2024-05-09T08:36:48.933Z,11.31
2024-05-09T08:37:49.001Z,11.10
2024-05-09T08:38:49.027Z,11.04
2024-05-09T08:39:49.163Z,10.86
2024-05-09T08:40:49.398Z,10.84
2024-05-09T08:41:49.349Z,10.80
2024-05-09T08:42:49.458Z,10.85
2024-05-09T08:43:49.479Z,10.87
2024-05-09T08:44:49.654Z,10.86
2024-05-09T08:45:49.749Z,10.91
2024-05-09T08:46:49.700Z,10.90
2024-05-09T08:47:49.865Z,10.88
2024-05-09T08:48:50.211Z,10.87
2024-05-09T08:49:49.990Z,10.83
2024-05-09T08:50:50.111Z,10.80
2024-05-09T08:51:50.172Z,10.80
2024-05-09T08:52:50.187Z,10.81
2024-05-09T08:53:50.266Z,10.76
2024-05-09T08:54:50.387Z,10.60
2024-05-09T08:55:50.458Z,10.36
2024-05-09T08:56:50.506Z,10.00
2024-05-09T08:57:50.618Z,9.74
2024-05-09T08:58:50.694Z,9.71
2024-05-09T08:59:50.880Z,9.73
2024-05-09T09:00:50.958Z,9.69
2024-05-09T09:01:51.011Z,9.75
2024-05-09T09:02:51.105Z,9.79
2024-05-09T09:03:51.292Z,9.76
2024-05-09T09:04:51.417Z,9.82
2024-05-09T09:05:51.343Z,9.90
2024-05-09T09:06:53.254Z,10.02
2024-05-09T09:07:51.682Z,10.09
2024-05-09T09:08:51.550Z,10.12
2024-05-09T09:09:51.695Z,10.19
2024-05-09T09:10:51.751Z,10.28
2024-05-09T09:11:51.832Z,10.27
2024-05-09T09:12:51.972Z,10.12
2024-05-09T09:13:51.961Z,10.01
2024-05-09T09:14:52.039Z,10.02
2024-05-09T09:15:52.251Z,10.03
2024-05-09T09:16:52.219Z,10.07
2024-05-09T09:17:52.482Z,10.11
2024-05-09T09:18:52.656Z,10.02
2024-05-09T09:19:52.633Z,9.97
2024-05-09T09:20:52.615Z,10.07
2024-05-09T09:21:52.726Z,10.11
2024-05-09T09:22:52.738Z,10.09
2024-05-09T09:23:52.860Z,10.03
2024-05-09T09:24:52.977Z,10.01
2024-05-09T09:25:52.989Z,9.96
2024-05-09T09:26:53.077Z,9.90
2024-05-09T09:27:53.187Z,9.90
2024-05-09T09:28:53.299Z,9.98
2024-05-09T09:29:53.342Z,10.15
2024-05-09T09:30:53.527Z,10.32
2024-05-09T09:31:53.501Z,10.36
2024-05-09T09:32:53.671Z,10.37
2024-05-09T09:33:53.954Z,10.32
2024-05-09T09:34:53.787Z,10.26
2024-05-09T09:35:53.853Z,10.23
2024-05-09T09:36:53.945Z,10.12
2024-05-09T09:37:54.019Z,10.03
2024-05-09T09:38:54.100Z,9.99
2024-05-09T09:39:54.216Z,9.95
2024-05-09T09:40:54.413Z,10.00
2024-05-09T09:41:54.333Z,9.98
2024-05-09T09:42:54.460Z,10.01
2024-05-09T09:43:54.533Z,10.12
2024-05-09T09:45:02.052Z,10.24
2024-05-09T09:45:54.722Z,10.38
2024-05-09T09:46:54.915Z,10.43
2024-05-09T09:47:54.916Z,10.35
2024-05-09T09:48:55.025Z,10.22
2024-05-09T09:49:55.028Z,10.22
2024-05-09T09:50:55.086Z,10.25
2024-05-09T09:51:55.275Z,10.35
2024-05-09T09:52:55.217Z,10.31
2024-05-09T09:53:55.296Z,10.18
2024-05-09T09:54:55.392Z,10.05
2024-05-09T09:55:55.516Z,9.92
2024-05-09T09:56:55.590Z,9.76
2024-05-09T09:57:55.877Z,9.70
2024-05-09T09:58:55.773Z,9.60
2024-05-09T09:59:55.834Z,9.49
2024-05-09T10:00:55.983Z,9.52
2024-05-09T10:01:56.128Z,9.61
2024-05-09T10:02:56.252Z,9.74
2024-05-09T10:03:56.325Z,10.00
2024-05-09T10:04:56.372Z,10.10
2024-05-09T10:05:56.422Z,10.80
2024-05-09T10:06:56.483Z,11.43
2024-05-09T10:07:56.567Z,11.38
2024-05-09T10:08:56.636Z,11.14
2024-05-09T10:09:56.766Z,10.95
2024-05-09T10:10:57.016Z,10.90
2024-05-09T10:12:00.235Z,10.93
2024-05-09T10:12:57.042Z,11.01
2024-05-09T10:13:57.131Z,11.00
2024-05-09T10:14:57.183Z,10.95
2024-05-09T10:15:57.293Z,10.90
2024-05-09T10:16:57.378Z,10.95
2024-05-09T10:17:57.472Z,11.59
2024-05-09T10:18:57.743Z,12.60
2024-05-09T10:19:57.634Z,12.75
2024-05-09T10:20:58.074Z,12.12
2024-05-09T10:21:57.830Z,11.84
2024-05-09T10:22:57.866Z,11.73
2024-05-09T10:23:57.961Z,11.98
2024-05-09T10:24:58.104Z,12.15
2024-05-09T10:25:58.282Z,12.92
2024-05-09T10:26:58.209Z,13.81
2024-05-09T10:27:58.411Z,14.66
2024-05-09T10:28:58.393Z,14.88
2024-05-09T10:29:58.487Z,15.50
2024-05-09T10:30:58.593Z,16.00
2024-05-09T10:31:58.648Z,16.43
2024-05-09T10:32:58.815Z,15.78
2024-05-09T10:33:58.945Z,14.88
2024-05-09T10:34:59.078Z,14.78
2024-05-09T10:35:59.049Z,14.68
2024-05-09T10:36:59.887Z,14.27
2024-05-09T10:37:59.189Z,14.14
2024-05-09T10:38:59.286Z,14.74
2024-05-09T10:39:59.412Z,15.21
2024-05-09T10:40:59.408Z,14.67
2024-05-09T10:41:59.499Z,14.14
2024-05-09T10:43:01.903Z,13.88
2024-05-09T10:43:59.669Z,13.57
2024-05-09T10:44:59.737Z,13.25
2024-05-09T10:45:59.874Z,13.07
2024-05-09T10:46:59.975Z,13.45
2024-05-09T10:48:00.233Z,14.12
2024-05-09T10:49:03.301Z,14.85
2024-05-09T10:50:00.267Z,15.64
2024-05-09T10:51:00.206Z,16.47
2024-05-09T10:52:00.313Z,15.94
2024-05-09T10:53:00.372Z,16.53
2024-05-09T10:54:00.439Z,16.09
2024-05-09T10:55:02.287Z,15.46
2024-05-09T10:56:00.701Z,15.06
2024-05-09T10:57:00.679Z,14.74
2024-05-09T10:58:00.819Z,14.47
2024-05-09T10:59:00.849Z,14.31
2024-05-09T11:00:00.942Z,14.19
2024-05-09T11:01:04.359Z,14.23
2024-05-09T11:02:01.199Z,14.21
2024-05-09T11:03:01.257Z,14.17
2024-05-09T11:04:01.450Z,14.14
2024-05-09T11:05:01.538Z,14.08
2024-05-09T11:06:01.480Z,14.10
2024-05-09T11:07:04.585Z,14.07
2024-05-09T11:08:01.590Z,13.90
2024-05-09T11:09:01.716Z,13.65
2024-05-09T11:10:01.843Z,13.58
2024-05-09T11:11:01.936Z,13.63
2024-05-09T11:12:02.148Z,13.68
2024-05-09T11:13:02.117Z,13.67
2024-05-09T11:14:02.188Z,13.61
2024-05-09T11:15:02.254Z,13.53
2024-05-09T11:16:02.386Z,13.54
2024-05-09T11:17:02.495Z,13.68
2024-05-09T11:18:02.574Z,13.84
2024-05-09T11:19:02.698Z,13.96
2024-05-09T11:20:06.222Z,14.01
2024-05-09T11:21:02.736Z,13.97
2024-05-09T11:22:02.869Z,13.85
2024-05-09T11:23:02.885Z,13.76
2024-05-09T11:24:02.978Z,13.59
2024-05-09T11:25:03.252Z,13.55
2024-05-09T11:26:03.263Z,13.29
2024-05-09T11:27:03.202Z,13.25
2024-05-09T11:28:03.428Z,13.26
2024-05-09T11:29:03.393Z,13.32
2024-05-09T11:30:04.381Z,13.40
2024-05-09T11:31:03.731Z,13.32
2024-05-09T11:32:03.706Z,13.35
2024-05-09T11:33:03.777Z,13.39
2024-05-09T11:34:03.939Z,13.45
2024-05-09T11:35:03.927Z,13.43
2024-05-09T11:36:04.100Z,13.54
2024-05-09T11:37:04.133Z,13.69
2024-05-09T11:38:04.160Z,13.62
2024-05-09T11:39:04.244Z,13.47
2024-05-09T11:40:07.098Z,13.46
2024-05-09T11:41:04.437Z,13.52
2024-05-09T11:42:04.486Z,13.99
2024-05-09T11:43:04.698Z,14.42
2024-05-09T11:44:04.650Z,14.49
2024-05-09T11:45:04.750Z,14.44
2024-05-09T11:46:04.967Z,14.42
2024-05-09T11:47:05.048Z,14.49
2024-05-09T11:48:05.093Z,14.59
2024-05-09T11:49:05.222Z,14.96
2024-05-09T11:50:07.899Z,15.34
2024-05-09T11:51:05.230Z,15.37
2024-05-09T11:52:05.339Z,15.39
2024-05-09T11:53:05.396Z,15.58
2024-05-09T11:54:05.461Z,16.00
2024-05-09T11:55:05.615Z,16.43
2024-05-09T11:56:05.628Z,16.91
2024-05-09T11:57:05.688Z,17.40
2024-05-09T11:58:05.863Z,17.86
2024-05-09T11:59:05.904Z,18.50
2024-05-09T12:00:07.369Z,18.38
2024-05-09T12:01:06.128Z,18.43
2024-05-09T12:02:17.330Z,18.53
2024-05-09T12:03:06.346Z,18.69
2024-05-09T12:04:06.561Z,18.95
2024-05-09T12:05:06.486Z,19.32
2024-05-09T12:06:06.439Z,19.68
2024-05-09T12:07:08.438Z,20.12
2024-05-09T12:08:06.581Z,20.51
2024-05-09T12:09:06.650Z,20.90
2024-05-09T12:10:11.859Z,21.47
2024-05-09T12:11:06.846Z,21.69
2024-05-09T12:12:06.944Z,21.83
2024-05-09T12:13:07.654Z,22.04
2024-05-09T12:14:07.115Z,21.86
2024-05-09T12:15:07.112Z,21.52
2024-05-09T12:16:07.363Z,21.14
2024-05-09T12:17:07.376Z,20.72
2024-05-09T12:18:08.320Z,20.35
2024-05-09T12:19:07.541Z,19.97
2024-05-09T12:20:14.077Z,19.62
2024-05-09T12:21:07.640Z,19.27
2024-05-09T12:22:07.829Z,18.80
2024-05-09T12:23:09.296Z,18.29
2024-05-09T12:24:07.939Z,17.95
2024-05-09T12:25:08.102Z,17.83
2024-05-09T12:26:08.087Z,17.69
2024-05-09T12:27:08.167Z,17.51
2024-05-09T12:28:08.501Z,17.27
2024-05-09T12:29:08.329Z,17.18
2024-05-09T12:30:11.377Z,16.95
2024-05-09T12:31:08.545Z,16.81
2024-05-09T12:32:08.625Z,16.64
2024-05-09T12:33:09.271Z,16.71
2024-05-09T12:34:08.868Z,16.83
2024-05-09T12:35:08.798Z,16.70
2024-05-09T12:36:08.903Z,16.54
2024-05-09T12:37:08.971Z,16.41
2024-05-09T12:38:09.053Z,16.18
2024-05-09T12:39:09.116Z,16.00
2024-05-09T12:40:18.445Z,15.90
2024-05-09T12:41:09.322Z,15.69
2024-05-09T12:42:11.026Z,16.05
2024-05-09T12:43:10.650Z,16.37
2024-05-09T12:44:09.536Z,16.68
2024-05-09T12:45:09.627Z,16.94
2024-05-09T12:46:09.722Z,17.06
2024-05-09T12:47:09.819Z,17.24
2024-05-09T12:48:09.973Z,17.56
2024-05-09T12:49:10.206Z,17.93
2024-05-09T12:50:18.962Z,18.30
2024-05-09T12:51:10.171Z,18.69
2024-05-09T12:52:10.360Z,19.13
2024-05-09T12:53:10.367Z,19.18
2024-05-09T12:54:10.393Z,19.02
2024-05-09T12:55:10.639Z,18.83
